De Sui — BSFU — position and weather

sailwx.info

Track history (hours):
 
Tides and Currents Weather Stations Pressure Air Temp Water Temp Dewpoint Dewpoint Depression Visibility Wind Speed Wind Dir Waves Ship Positions

De Sui

Last reported at 2016-Mar-22 15:33 UTC. Time now 2016-Apr-30 09:07 UTC.
Position N 22°07' E 113°49'.
Warning: this ship's position is 38 days out of date.

Length 65 m; draft 4.5 m.

Type: Towing. MMSI: 413070000.

Date/timePositionNaut miles runAvg speedWind from/ knotsBaromVisibWave heightAir tempDewpointWater temp
2016-Mar-22 15:33N 22°07' E 113°49'3 3.0
2016-Mar-22 14:33N 22°09' E 113°47'3 0.1
2016-Mar-21 10:16N 22°10' E 113°50'2 0.1
2016-Mar-20 14:33N 22°12' E 113°49'2 0.2
2016-Mar-20 04:13N 22°10' E 113°50'  
2016-Mar-14 11:20N 22°09' E 113°51'911.0
2016-Mar-14 10:29N 22°18' E 113°48'3610.5
2016-Mar-14 07:06N 22°51' E 113°34'4 0.6
2016-Mar-14 00:25N 22°55' E 113°33'0 0.0
2016-Mar-13 23:13N 22°55' E 113°33'0 0.0
2016-Mar-13 22:25N 22°55' E 113°33'0 0.0
2016-Mar-13 21:13N 22°55' E 113°33'0 0.1
2016-Mar-13 20:30N 22°55' E 113°33'0 0.0
2016-Mar-13 19:24N 22°55' E 113°33'0 0.0
2016-Mar-13 18:24N 22°55' E 113°33'0 0.1
2016-Mar-13 17:24N 22°55' E 113°33'0 0.1
2016-Mar-13 15:18N 22°55' E 113°33'0 0.0
2016-Mar-13 14:24N 22°55' E 113°33'0 0.0
2016-Mar-13 12:18N 22°55' E 113°33'0 0.0
2016-Mar-13 11:18N 22°55' E 113°33'0 0.0
2016-Mar-13 10:30N 22°55' E 113°33'0 0.0
2016-Mar-13 09:30N 22°55' E 113°33'0 0.0
2016-Mar-13 08:30N 22°55' E 113°33'0 0.0
2016-Mar-13 04:18N 22°55' E 113°33'0 0.1
2016-Mar-13 02:18N 22°55' E 113°33'0 0.0
2016-Mar-13 01:30N 22°55' E 113°33'0 0.0
2016-Mar-13 00:30N 22°55' E 113°33'0 0.0
2016-Mar-12 23:24N 22°55' E 113°33'0 0.0
2016-Mar-12 22:30N 22°55' E 113°33'0 0.0
2016-Mar-12 21:18N 22°55' E 113°33'0 0.0
2016-Mar-12 20:24N 22°55' E 113°33'  
Track history (hours):
 
Tides and Currents Weather Stations Pressure Air Temp Water Temp Dewpoint Dewpoint Depression Visibility Wind Speed Wind Dir Waves Ship Positions

De Sui

Last reported at 2016-Mar-22 15:33 UTC. Time now 2016-Apr-30 09:07 UTC.
Position N 22°07' E 113°49'.
Warning: this ship's position is 38 days out of date.

Length 65 m; draft 4.5 m.

Type: Towing. MMSI: 413070000.

Date/timePositionNaut miles runAvg speedWind from/ knotsBaromVisibWave heightAir tempDewpointWater temp
2016-Mar-22 15:33N 22°07' E 113°49'3 3.0
2016-Mar-22 14:33N 22°09' E 113°47'3 0.1
2016-Mar-21 10:16N 22°10' E 113°50'2 0.1
2016-Mar-20 14:33N 22°12' E 113°49'2 0.2
2016-Mar-20 04:13N 22°10' E 113°50'  
2016-Mar-14 11:20N 22°09' E 113°51'911.0
2016-Mar-14 10:29N 22°18' E 113°48'3610.5
2016-Mar-14 07:06N 22°51' E 113°34'4 0.6
2016-Mar-14 00:25N 22°55' E 113°33'0 0.0
2016-Mar-13 23:13N 22°55' E 113°33'0 0.0
2016-Mar-13 22:25N 22°55' E 113°33'0 0.0
2016-Mar-13 21:13N 22°55' E 113°33'0 0.1
2016-Mar-13 20:30N 22°55' E 113°33'0 0.0
2016-Mar-13 19:24N 22°55' E 113°33'0 0.0
2016-Mar-13 18:24N 22°55' E 113°33'0 0.1
2016-Mar-13 17:24N 22°55' E 113°33'0 0.1
2016-Mar-13 15:18N 22°55' E 113°33'0 0.0
2016-Mar-13 14:24N 22°55' E 113°33'0 0.0
2016-Mar-13 12:18N 22°55' E 113°33'0 0.0
2016-Mar-13 11:18N 22°55' E 113°33'0 0.0
2016-Mar-13 10:30N 22°55' E 113°33'0 0.0
2016-Mar-13 09:30N 22°55' E 113°33'0 0.0
2016-Mar-13 08:30N 22°55' E 113°33'0 0.0
2016-Mar-13 04:18N 22°55' E 113°33'0 0.1
2016-Mar-13 02:18N 22°55' E 113°33'0 0.0
2016-Mar-13 01:30N 22°55' E 113°33'0 0.0
2016-Mar-13 00:30N 22°55' E 113°33'0 0.0
2016-Mar-12 23:24N 22°55' E 113°33'0 0.0
2016-Mar-12 22:30N 22°55' E 113°33'0 0.0
2016-Mar-12 21:18N 22°55' E 113°33'0 0.0
2016-Mar-12 20:24N 22°55' E 113°33'  

Dump ship's entire track history